sensor_id;sensor_type;location;lat;lon;timestamp;pressure;altitude;pressure_sealevel;temperature
38114;BMP180;23926;53.222;6.354;2024-03-08T00:00:14;102004.00;;;5.80
38114;BMP180;23926;53.222;6.354;2024-03-08T00:02:40;102000.00;;;5.80
38114;BMP180;23926;53.222;6.354;2024-03-08T00:05:07;102001.00;;;5.80
38114;BMP180;23926;53.222;6.354;2024-03-08T00:07:36;102002.00;;;5.80
38114;BMP180;23926;53.222;6.354;2024-03-08T00:10:03;101997.00;;;5.70
38114;BMP180;23926;53.222;6.354;2024-03-08T00:12:28;101977.00;;;5.60
38114;BMP180;23926;53.222;6.354;2024-03-08T00:14:54;101985.00;;;5.60
38114;BMP180;23926;53.222;6.354;2024-03-08T00:17:20;101980.00;;;5.60
38114;BMP180;23926;53.222;6.354;2024-03-08T00:19:48;101991.00;;;5.50
38114;BMP180;23926;53.222;6.354;2024-03-08T00:22:15;101968.00;;;5.60
38114;BMP180;23926;53.222;6.354;2024-03-08T00:24:41;101987.00;;;5.60
38114;BMP180;23926;53.222;6.354;2024-03-08T00:27:06;101974.00;;;5.60
38114;BMP180;23926;53.222;6.354;2024-03-08T00:29:32;101981.00;;;5.70
38114;BMP180;23926;53.222;6.354;2024-03-08T00:31:57;101975.00;;;5.60
38114;BMP180;23926;53.222;6.354;2024-03-08T00:34:23;101967.00;;;5.60
38114;BMP180;23926;53.222;6.354;2024-03-08T00:36:48;101972.00;;;5.60
38114;BMP180;23926;53.222;6.354;2024-03-08T00:39:14;101968.00;;;5.60
38114;BMP180;23926;53.222;6.354;2024-03-08T00:41:39;101967.00;;;5.60
38114;BMP180;23926;53.222;6.354;2024-03-08T00:44:05;101967.00;;;5.70
38114;BMP180;23926;53.222;6.354;2024-03-08T00:46:30;101977.00;;;5.70
38114;BMP180;23926;53.222;6.354;2024-03-08T00:48:56;101972.00;;;5.70
38114;BMP180;23926;53.222;6.354;2024-03-08T00:51:22;101964.00;;;5.50
38114;BMP180;23926;53.222;6.354;2024-03-08T00:53:47;101965.00;;;5.50
38114;BMP180;23926;53.222;6.354;2024-03-08T00:56:13;101954.00;;;5.60
38114;BMP180;23926;53.222;6.354;2024-03-08T00:58:38;101949.00;;;5.60
38114;BMP180;23926;53.222;6.354;2024-03-08T01:01:04;101952.00;;;5.60
38114;BMP180;23926;53.222;6.354;2024-03-08T01:03:30;101939.00;;;5.70
38114;BMP180;23926;53.222;6.354;2024-03-08T01:06:00;101950.00;;;5.80
38114;BMP180;23926;53.222;6.354;2024-03-08T01:08:28;101948.00;;;5.70
38114;BMP180;23926;53.222;6.354;2024-03-08T01:10:54;101950.00;;;5.70
38114;BMP180;23926;53.222;6.354;2024-03-08T01:13:19;101931.00;;;5.80
38114;BMP180;23926;53.222;6.354;2024-03-08T01:15:45;101933.00;;;5.70
38114;BMP180;23926;53.222;6.354;2024-03-08T01:18:11;101938.00;;;5.60
38114;BMP180;23926;53.222;6.354;2024-03-08T01:20:36;101926.00;;;5.60
38114;BMP180;23926;53.222;6.354;2024-03-08T01:23:02;101915.00;;;5.60
38114;BMP180;23926;53.222;6.354;2024-03-08T01:25:27;101914.00;;;5.40
38114;BMP180;23926;53.222;6.354;2024-03-08T01:27:52;101909.00;;;5.50
38114;BMP180;23926;53.222;6.354;2024-03-08T01:30:19;101905.00;;;5.40
38114;BMP180;23926;53.222;6.354;2024-03-08T01:32:44;101889.00;;;5.40
38114;BMP180;23926;53.222;6.354;2024-03-08T01:35:10;101903.00;;;5.40
38114;BMP180;23926;53.222;6.354;2024-03-08T01:37:35;101895.00;;;5.30
38114;BMP180;23926;53.222;6.354;2024-03-08T01:40:01;101894.00;;;5.30
38114;BMP180;23926;53.222;6.354;2024-03-08T01:42:28;101887.00;;;5.30
38114;BMP180;23926;53.222;6.354;2024-03-08T01:44:53;101882.00;;;5.30
38114;BMP180;23926;53.222;6.354;2024-03-08T01:47:19;101879.00;;;5.30
38114;BMP180;23926;53.222;6.354;2024-03-08T01:49:50;101882.00;;;5.30
38114;BMP180;23926;53.222;6.354;2024-03-08T01:52:17;101878.00;;;5.20
38114;BMP180;23926;53.222;6.354;2024-03-08T01:54:44;101871.00;;;5.20
38114;BMP180;23926;53.222;6.354;2024-03-08T01:57:10;101859.00;;;5.20
38114;BMP180;23926;53.222;6.354;2024-03-08T01:59:36;101877.00;;;5.10
38114;BMP180;23926;53.222;6.354;2024-03-08T02:02:02;101853.00;;;5.10
38114;BMP180;23926;53.222;6.354;2024-03-08T02:04:29;101870.00;;;5.00
38114;BMP180;23926;53.222;6.354;2024-03-08T02:06:56;101855.00;;;5.00
38114;BMP180;23926;53.222;6.354;2024-03-08T02:09:23;101852.00;;;4.80
38114;BMP180;23926;53.222;6.354;2024-03-08T02:11:50;101854.00;;;4.90
38114;BMP180;23926;53.222;6.354;2024-03-08T02:14:17;101854.00;;;4.80
38114;BMP180;23926;53.222;6.354;2024-03-08T02:16:44;101862.00;;;4.80
38114;BMP180;23926;53.222;6.354;2024-03-08T02:19:09;101850.00;;;4.90
38114;BMP180;23926;53.222;6.354;2024-03-08T02:21:35;101841.00;;;4.90
38114;BMP180;23926;53.222;6.354;2024-03-08T02:24:01;101843.00;;;4.90
38114;BMP180;23926;53.222;6.354;2024-03-08T02:26:27;101847.00;;;4.90
38114;BMP180;23926;53.222;6.354;2024-03-08T02:28:52;101855.00;;;4.90
38114;BMP180;23926;53.222;6.354;2024-03-08T02:31:18;101834.00;;;4.90
38114;BMP180;23926;53.222;6.354;2024-03-08T02:33:43;101846.00;;;4.80
38114;BMP180;23926;53.222;6.354;2024-03-08T02:36:08;101838.00;;;4.90
38114;BMP180;23926;53.222;6.354;2024-03-08T02:38:34;101842.00;;;4.80
38114;BMP180;23926;53.222;6.354;2024-03-08T02:40:59;101836.00;;;4.80
38114;BMP180;23926;53.222;6.354;2024-03-08T02:43:25;101827.00;;;4.90
38114;BMP180;23926;53.222;6.354;2024-03-08T02:45:51;101829.00;;;4.90
38114;BMP180;23926;53.222;6.354;2024-03-08T02:48:18;101833.00;;;4.90
38114;BMP180;23926;53.222;6.354;2024-03-08T02:50:43;101831.00;;;4.90
38114;BMP180;23926;53.222;6.354;2024-03-08T02:53:10;101836.00;;;4.90
38114;BMP180;23926;53.222;6.354;2024-03-08T02:55:36;101836.00;;;4.80
38114;BMP180;23926;53.222;6.354;2024-03-08T02:58:03;101816.00;;;4.80
38114;BMP180;23926;53.222;6.354;2024-03-08T03:00:29;101824.00;;;4.70
38114;BMP180;23926;53.222;6.354;2024-03-08T03:02:56;101823.00;;;4.70
38114;BMP180;23926;53.222;6.354;2024-03-08T03:05:23;101809.00;;;4.70
38114;BMP180;23926;53.222;6.354;2024-03-08T03:07:49;101820.00;;;4.70
38114;BMP180;23926;53.222;6.354;2024-03-08T03:10:19;101823.00;;;4.60
38114;BMP180;23926;53.222;6.354;2024-03-08T03:12:45;101809.00;;;4.70
38114;BMP180;23926;53.222;6.354;2024-03-08T03:15:11;101804.00;;;4.70
38114;BMP180;23926;53.222;6.354;2024-03-08T03:17:37;101813.00;;;4.70
38114;BMP180;23926;53.222;6.354;2024-03-08T03:20:05;101802.00;;;4.70
38114;BMP180;23926;53.222;6.354;2024-03-08T03:22:36;101805.00;;;4.70
38114;BMP180;23926;53.222;6.354;2024-03-08T03:25:02;101811.00;;;4.60
38114;BMP180;23926;53.222;6.354;2024-03-08T03:27:29;101806.00;;;4.60
38114;BMP180;23926;53.222;6.354;2024-03-08T03:29:56;101806.00;;;4.70
38114;BMP180;23926;53.222;6.354;2024-03-08T03:32:23;101800.00;;;4.70
38114;BMP180;23926;53.222;6.354;2024-03-08T03:34:49;101813.00;;;4.70
38114;BMP180;23926;53.222;6.354;2024-03-08T03:37:18;101798.00;;;4.60
38114;BMP180;23926;53.222;6.354;2024-03-08T03:39:45;101803.00;;;4.70
38114;BMP180;23926;53.222;6.354;2024-03-08T03:42:17;101799.00;;;4.50
38114;BMP180;23926;53.222;6.354;2024-03-08T03:44:49;101790.00;;;4.50
38114;BMP180;23926;53.222;6.354;2024-03-08T03:47:15;101794.00;;;4.50
38114;BMP180;23926;53.222;6.354;2024-03-08T03:49:41;101787.00;;;4.50
38114;BMP180;23926;53.222;6.354;2024-03-08T03:52:08;101777.00;;;4.60
38114;BMP180;23926;53.222;6.354;2024-03-08T03:54:33;101773.00;;;4.50
38114;BMP180;23926;53.222;6.354;2024-03-08T03:56:59;101776.00;;;4.60
38114;BMP180;23926;53.222;6.354;2024-03-08T03:59:26;101775.00;;;4.60
38114;BMP180;23926;53.222;6.354;2024-03-08T04:01:52;101775.00;;;4.60
38114;BMP180;23926;53.222;6.354;2024-03-08T04:04:18;101764.00;;;4.50
38114;BMP180;23926;53.222;6.354;2024-03-08T04:06:43;101758.00;;;4.50
38114;BMP180;23926;53.222;6.354;2024-03-08T04:09:10;101773.00;;;4.50
38114;BMP180;23926;53.222;6.354;2024-03-08T04:11:36;101759.00;;;4.50
38114;BMP180;23926;53.222;6.354;2024-03-08T04:14:01;101764.00;;;4.50
38114;BMP180;23926;53.222;6.354;2024-03-08T04:16:27;101776.00;;;4.50
38114;BMP180;23926;53.222;6.354;2024-03-08T04:18:52;101755.00;;;4.50
38114;BMP180;23926;53.222;6.354;2024-03-08T04:21:18;101762.00;;;4.50
38114;BMP180;23926;53.222;6.354;2024-03-08T04:23:44;101747.00;;;4.40
38114;BMP180;23926;53.222;6.354;2024-03-08T04:26:10;101754.00;;;4.40
38114;BMP180;23926;53.222;6.354;2024-03-08T04:28:36;101748.00;;;4.50
38114;BMP180;23926;53.222;6.354;2024-03-08T04:31:03;101750.00;;;4.40
38114;BMP180;23926;53.222;6.354;2024-03-08T04:33:28;101747.00;;;4.30
38114;BMP180;23926;53.222;6.354;2024-03-08T04:35:54;101753.00;;;4.30
38114;BMP180;23926;53.222;6.354;2024-03-08T04:38:19;101750.00;;;4.30
38114;BMP180;23926;53.222;6.354;2024-03-08T04:40:45;101737.00;;;4.20
38114;BMP180;23926;53.222;6.354;2024-03-08T04:43:10;101744.00;;;4.20
38114;BMP180;23926;53.222;6.354;2024-03-08T04:45:36;101736.00;;;4.20
38114;BMP180;23926;53.222;6.354;2024-03-08T04:48:02;101732.00;;;4.10
38114;BMP180;23926;53.222;6.354;2024-03-08T04:50:27;101736.00;;;4.20
38114;BMP180;23926;53.222;6.354;2024-03-08T04:52:56;101728.00;;;4.20
38114;BMP180;23926;53.222;6.354;2024-03-08T04:55:21;101737.00;;;4.20
38114;BMP180;23926;53.222;6.354;2024-03-08T04:57:47;101730.00;;;4.20
38114;BMP180;23926;53.222;6.354;2024-03-08T05:00:13;101731.00;;;4.20
38114;BMP180;23926;53.222;6.354;2024-03-08T05:02:40;101711.00;;;4.10
38114;BMP180;23926;53.222;6.354;2024-03-08T05:05:07;101716.00;;;4.20
38114;BMP180;23926;53.222;6.354;2024-03-08T05:07:34;101727.00;;;4.20
38114;BMP180;23926;53.222;6.354;2024-03-08T05:10:00;101727.00;;;4.20
38114;BMP180;23926;53.222;6.354;2024-03-08T05:12:27;101719.00;;;4.10
38114;BMP180;23926;53.222;6.354;2024-03-08T05:14:52;101724.00;;;4.10
38114;BMP180;23926;53.222;6.354;2024-03-08T05:17:19;101714.00;;;4.10
38114;BMP180;23926;53.222;6.354;2024-03-08T05:19:44;101715.00;;;4.20
38114;BMP180;23926;53.222;6.354;2024-03-08T05:22:10;101715.00;;;4.20
38114;BMP180;23926;53.222;6.354;2024-03-08T05:24:35;101718.00;;;4.10
38114;BMP180;23926;53.222;6.354;2024-03-08T05:27:00;101716.00;;;4.10
38114;BMP180;23926;53.222;6.354;2024-03-08T05:29:27;101718.00;;;4.10
38114;BMP180;23926;53.222;6.354;2024-03-08T05:31:54;101721.00;;;4.10
38114;BMP180;23926;53.222;6.354;2024-03-08T05:34:20;101714.00;;;4.10
38114;BMP180;23926;53.222;6.354;2024-03-08T05:36:50;101712.00;;;4.20
38114;BMP180;23926;53.222;6.354;2024-03-08T05:39:16;101714.00;;;4.20
38114;BMP180;23926;53.222;6.354;2024-03-08T05:41:43;101711.00;;;4.20
38114;BMP180;23926;53.222;6.354;2024-03-08T05:44:09;101731.00;;;4.20
38114;BMP180;23926;53.222;6.354;2024-03-08T05:46:35;101717.00;;;4.20
38114;BMP180;23926;53.222;6.354;2024-03-08T05:49:02;101728.00;;;4.20
38114;BMP180;23926;53.222;6.354;2024-03-08T05:51:31;101718.00;;;4.20
38114;BMP180;23926;53.222;6.354;2024-03-08T05:54:03;101720.00;;;4.10
38114;BMP180;23926;53.222;6.354;2024-03-08T05:56:33;101723.00;;;4.10
38114;BMP180;23926;53.222;6.354;2024-03-08T05:58:59;101716.00;;;4.00
38114;BMP180;23926;53.222;6.354;2024-03-08T06:01:25;101718.00;;;3.90
38114;BMP180;23926;53.222;6.354;2024-03-08T06:03:52;101719.00;;;3.80
38114;BMP180;23926;53.222;6.354;2024-03-08T06:06:19;101714.00;;;3.90
38114;BMP180;23926;53.222;6.354;2024-03-08T06:08:46;101711.00;;;3.90
38114;BMP180;23926;53.222;6.354;2024-03-08T06:11:14;101727.00;;;4.00
38114;BMP180;23926;53.222;6.354;2024-03-08T06:13:40;101716.00;;;3.90
38114;BMP180;23926;53.222;6.354;2024-03-08T06:16:06;101715.00;;;3.90
38114;BMP180;23926;53.222;6.354;2024-03-08T06:18:36;101698.00;;;3.90
38114;BMP180;23926;53.222;6.354;2024-03-08T06:21:05;101709.00;;;3.70
38114;BMP180;23926;53.222;6.354;2024-03-08T06:23:32;101696.00;;;3.90
38114;BMP180;23926;53.222;6.354;2024-03-08T06:25:57;101704.00;;;3.90
38114;BMP180;23926;53.222;6.354;2024-03-08T06:28:23;101704.00;;;3.80
38114;BMP180;23926;53.222;6.354;2024-03-08T06:30:48;101709.00;;;3.90
38114;BMP180;23926;53.222;6.354;2024-03-08T06:33:15;101702.00;;;3.80
38114;BMP180;23926;53.222;6.354;2024-03-08T06:35:41;101702.00;;;3.80
38114;BMP180;23926;53.222;6.354;2024-03-08T06:38:07;101698.00;;;3.90
38114;BMP180;23926;53.222;6.354;2024-03-08T06:40:32;101699.00;;;4.00
38114;BMP180;23926;53.222;6.354;2024-03-08T06:42:57;101695.00;;;4.00
38114;BMP180;23926;53.222;6.354;2024-03-08T06:45:23;101698.00;;;4.00
38114;BMP180;23926;53.222;6.354;2024-03-08T06:47:49;101702.00;;;4.00
38114;BMP180;23926;53.222;6.354;2024-03-08T06:50:15;101712.00;;;4.10
38114;BMP180;23926;53.222;6.354;2024-03-08T06:52:41;101709.00;;;4.10
38114;BMP180;23926;53.222;6.354;2024-03-08T06:55:08;101711.00;;;4.10
38114;BMP180;23926;53.222;6.354;2024-03-08T06:57:39;101700.00;;;4.00
38114;BMP180;23926;53.222;6.354;2024-03-08T07:00:08;101712.00;;;4.10
38114;BMP180;23926;53.222;6.354;2024-03-08T07:02:35;101702.00;;;4.10
38114;BMP180;23926;53.222;6.354;2024-03-08T07:05:01;101709.00;;;4.10
38114;BMP180;23926;53.222;6.354;2024-03-08T07:07:27;101705.00;;;4.00
38114;BMP180;23926;53.222;6.354;2024-03-08T07:09:52;101698.00;;;4.10
38114;BMP180;23926;53.222;6.354;2024-03-08T07:12:18;101706.00;;;4.10
38114;BMP180;23926;53.222;6.354;2024-03-08T07:14:46;101716.00;;;4.30
38114;BMP180;23926;53.222;6.354;2024-03-08T07:17:12;101688.00;;;4.40
38114;BMP180;23926;53.222;6.354;2024-03-08T07:19:38;101699.00;;;4.50
38114;BMP180;23926;53.222;6.354;2024-03-08T07:22:04;101700.00;;;4.50
38114;BMP180;23926;53.222;6.354;2024-03-08T07:24:30;101713.00;;;4.60
38114;BMP180;23926;53.222;6.354;2024-03-08T07:27:05;101713.00;;;4.70
38114;BMP180;23926;53.222;6.354;2024-03-08T07:29:32;101710.00;;;4.70
38114;BMP180;23926;53.222;6.354;2024-03-08T07:31:57;101706.00;;;4.70
38114;BMP180;23926;53.222;6.354;2024-03-08T07:34:26;101698.00;;;4.80
38114;BMP180;23926;53.222;6.354;2024-03-08T07:36:51;101702.00;;;4.80
38114;BMP180;23926;53.222;6.354;2024-03-08T07:39:16;101690.00;;;4.90
38114;BMP180;23926;53.222;6.354;2024-03-08T07:41:42;101705.00;;;5.20
38114;BMP180;23926;53.222;6.354;2024-03-08T07:44:08;101706.00;;;5.20
38114;BMP180;23926;53.222;6.354;2024-03-08T07:46:34;101698.00;;;5.30
38114;BMP180;23926;53.222;6.354;2024-03-08T07:49:00;101685.00;;;5.30
38114;BMP180;23926;53.222;6.354;2024-03-08T07:51:26;101676.00;;;5.40
38114;BMP180;23926;53.222;6.354;2024-03-08T07:53:51;101680.00;;;5.50
38114;BMP180;23926;53.222;6.354;2024-03-08T07:56:17;101691.00;;;5.40
38114;BMP180;23926;53.222;6.354;2024-03-08T07:58:44;101683.00;;;5.40
38114;BMP180;23926;53.222;6.354;2024-03-08T08:01:16;101674.00;;;5.40
38114;BMP180;23926;53.222;6.354;2024-03-08T08:03:42;101682.00;;;5.50
38114;BMP180;23926;53.222;6.354;2024-03-08T08:06:07;101672.00;;;5.60
38114;BMP180;23926;53.222;6.354;2024-03-08T08:08:33;101663.00;;;5.80
38114;BMP180;23926;53.222;6.354;2024-03-08T08:10:59;101680.00;;;5.90
38114;BMP180;23926;53.222;6.354;2024-03-08T08:13:24;101675.00;;;5.80
38114;BMP180;23926;53.222;6.354;2024-03-08T08:15:50;101654.00;;;5.90
38114;BMP180;23926;53.222;6.354;2024-03-08T08:18:15;101658.00;;;6.00
38114;BMP180;23926;53.222;6.354;2024-03-08T08:20:44;101659.00;;;6.10
38114;BMP180;23926;53.222;6.354;2024-03-08T08:23:09;101648.00;;;6.10
38114;BMP180;23926;53.222;6.354;2024-03-08T08:25:36;101651.00;;;6.20
38114;BMP180;23926;53.222;6.354;2024-03-08T08:28:01;101649.00;;;6.30
38114;BMP180;23926;53.222;6.354;2024-03-08T08:30:29;101650.00;;;6.30
38114;BMP180;23926;53.222;6.354;2024-03-08T08:32:54;101639.00;;;6.40
38114;BMP180;23926;53.222;6.354;2024-03-08T08:35:20;101625.00;;;6.50
38114;BMP180;23926;53.222;6.354;2024-03-08T08:37:45;101637.00;;;6.60
38114;BMP180;23926;53.222;6.354;2024-03-08T08:40:12;101627.00;;;6.60
38114;BMP180;23926;53.222;6.354;2024-03-08T08:42:40;101627.00;;;6.60
38114;BMP180;23926;53.222;6.354;2024-03-08T08:45:06;101624.00;;;6.70
38114;BMP180;23926;53.222;6.354;2024-03-08T08:47:34;101620.00;;;6.80
38114;BMP180;23926;53.222;6.354;2024-03-08T08:50:00;101617.00;;;6.80
38114;BMP180;23926;53.222;6.354;2024-03-08T08:52:26;101612.00;;;7.00
38114;BMP180;23926;53.222;6.354;2024-03-08T08:54:51;101615.00;;;7.10
38114;BMP180;23926;53.222;6.354;2024-03-08T08:57:16;101614.00;;;7.20
38114;BMP180;23926;53.222;6.354;2024-03-08T08:59:42;101605.00;;;7.20
38114;BMP180;23926;53.222;6.354;2024-03-08T09:02:08;101603.00;;;7.30
38114;BMP180;23926;53.222;6.354;2024-03-08T09:04:34;101605.00;;;7.30
38114;BMP180;23926;53.222;6.354;2024-03-08T09:07:01;101607.00;;;7.20
38114;BMP180;23926;53.222;6.354;2024-03-08T09:09:26;101604.00;;;7.30
38114;BMP180;23926;53.222;6.354;2024-03-08T09:11:52;101589.00;;;7.30
38114;BMP180;23926;53.222;6.354;2024-03-08T09:14:17;101603.00;;;7.40
38114;BMP180;23926;53.222;6.354;2024-03-08T09:16:43;101600.00;;;7.40
38114;BMP180;23926;53.222;6.354;2024-03-08T09:19:08;101592.00;;;7.60
38114;BMP180;23926;53.222;6.354;2024-03-08T09:21:36;101581.00;;;7.50
38114;BMP180;23926;53.222;6.354;2024-03-08T09:24:02;101593.00;;;7.50
38114;BMP180;23926;53.222;6.354;2024-03-08T09:26:27;101581.00;;;7.60
38114;BMP180;23926;53.222;6.354;2024-03-08T09:28:53;101573.00;;;7.40
38114;BMP180;23926;53.222;6.354;2024-03-08T09:31:20;101570.00;;;7.70
38114;BMP180;23926;53.222;6.354;2024-03-08T09:33:46;101571.00;;;7.80
38114;BMP180;23926;53.222;6.354;2024-03-08T09:36:12;101559.00;;;7.70
38114;BMP180;23926;53.222;6.354;2024-03-08T09:38:39;101572.00;;;7.70
38114;BMP180;23926;53.222;6.354;2024-03-08T09:41:05;101568.00;;;7.70
38114;BMP180;23926;53.222;6.354;2024-03-08T09:43:30;101544.00;;;7.80
38114;BMP180;23926;53.222;6.354;2024-03-08T09:45:57;101552.00;;;7.80
38114;BMP180;23926;53.222;6.354;2024-03-08T09:48:23;101566.00;;;8.00
38114;BMP180;23926;53.222;6.354;2024-03-08T09:50:49;101558.00;;;8.00
38114;BMP180;23926;53.222;6.354;2024-03-08T09:53:14;101537.00;;;8.10
38114;BMP180;23926;53.222;6.354;2024-03-08T09:55:40;101543.00;;;8.20
38114;BMP180;23926;53.222;6.354;2024-03-08T09:58:12;101544.00;;;8.10
38114;BMP180;23926;53.222;6.354;2024-03-08T10:00:53;101542.00;;;8.10
38114;BMP180;23926;53.222;6.354;2024-03-08T10:03:21;101543.00;;;8.10
38114;BMP180;23926;53.222;6.354;2024-03-08T10:05:47;101542.00;;;8.20
38114;BMP180;23926;53.222;6.354;2024-03-08T10:08:12;101522.00;;;8.20
38114;BMP180;23926;53.222;6.354;2024-03-08T10:10:38;101527.00;;;8.10
38114;BMP180;23926;53.222;6.354;2024-03-08T10:13:07;101518.00;;;8.20
38114;BMP180;23926;53.222;6.354;2024-03-08T10:15:33;101513.00;;;8.20
38114;BMP180;23926;53.222;6.354;2024-03-08T10:17:59;101509.00;;;8.40
38114;BMP180;23926;53.222;6.354;2024-03-08T10:20:24;101503.00;;;8.20
38114;BMP180;23926;53.222;6.354;2024-03-08T10:22:51;101505.00;;;8.30
38114;BMP180;23926;53.222;6.354;2024-03-08T10:25:19;101494.00;;;8.40
38114;BMP180;23926;53.222;6.354;2024-03-08T10:27:44;101491.00;;;8.40
38114;BMP180;23926;53.222;6.354;2024-03-08T10:30:15;101500.00;;;8.40
38114;BMP180;23926;53.222;6.354;2024-03-08T10:32:41;101493.00;;;8.60
38114;BMP180;23926;53.222;6.354;2024-03-08T10:35:07;101496.00;;;8.60
38114;BMP180;23926;53.222;6.354;2024-03-08T10:40:09;101493.00;;;8.70
38114;BMP180;23926;53.222;6.354;2024-03-08T10:42:50;101486.00;;;8.60
38114;BMP180;23926;53.222;6.354;2024-03-08T10:47:58;101482.00;;;8.70
38114;BMP180;23926;53.222;6.354;2024-03-08T10:50:29;101460.00;;;8.90
38114;BMP180;23926;53.222;6.354;2024-03-08T10:53:00;101473.00;;;8.90
38114;BMP180;23926;53.222;6.354;2024-03-08T10:55:28;101470.00;;;9.00
38114;BMP180;23926;53.222;6.354;2024-03-08T10:57:53;101470.00;;;9.00
38114;BMP180;23926;53.222;6.354;2024-03-08T11:00:20;101473.00;;;9.00
38114;BMP180;23926;53.222;6.354;2024-03-08T11:02:52;101460.00;;;9.10
38114;BMP180;23926;53.222;6.354;2024-03-08T11:05:41;101465.00;;;9.30
38114;BMP180;23926;53.222;6.354;2024-03-08T11:08:18;101457.00;;;9.40
38114;BMP180;23926;53.222;6.354;2024-03-08T11:10:51;101446.00;;;9.30
38114;BMP180;23926;53.222;6.354;2024-03-08T11:13:36;101449.00;;;9.20
38114;BMP180;23926;53.222;6.354;2024-03-08T11:16:02;101448.00;;;9.30
38114;BMP180;23926;53.222;6.354;2024-03-08T11:18:35;101445.00;;;9.20
38114;BMP180;23926;53.222;6.354;2024-03-08T11:21:04;101443.00;;;9.20
38114;BMP180;23926;53.222;6.354;2024-03-08T11:23:37;101439.00;;;9.30
38114;BMP180;23926;53.222;6.354;2024-03-08T11:26:03;101439.00;;;9.40
38114;BMP180;23926;53.222;6.354;2024-03-08T11:28:32;101424.00;;;9.40
38114;BMP180;23926;53.222;6.354;2024-03-08T11:33:28;101432.00;;;9.60
38114;BMP180;23926;53.222;6.354;2024-03-08T11:36:20;101433.00;;;9.80
38114;BMP180;23926;53.222;6.354;2024-03-08T11:38:48;101426.00;;;9.80
38114;BMP180;23926;53.222;6.354;2024-03-08T11:41:20;101433.00;;;10.00
38114;BMP180;23926;53.222;6.354;2024-03-08T11:43:46;101421.00;;;10.10
38114;BMP180;23926;53.222;6.354;2024-03-08T11:46:13;101418.00;;;9.80
38114;BMP180;23926;53.222;6.354;2024-03-08T11:48:43;101409.00;;;9.70
38114;BMP180;23926;53.222;6.354;2024-03-08T11:51:11;101409.00;;;10.00
38114;BMP180;23926;53.222;6.354;2024-03-08T11:53:37;101403.00;;;10.10
38114;BMP180;23926;53.222;6.354;2024-03-08T11:56:10;101407.00;;;10.00
38114;BMP180;23926;53.222;6.354;2024-03-08T11:58:37;101404.00;;;10.20
38114;BMP180;23926;53.222;6.354;2024-03-08T12:01:11;101407.00;;;10.20
38114;BMP180;23926;53.222;6.354;2024-03-08T12:03:42;101396.00;;;10.30
38114;BMP180;23926;53.222;6.354;2024-03-08T12:06:11;101406.00;;;10.30
38114;BMP180;23926;53.222;6.354;2024-03-08T12:08:39;101390.00;;;10.30
38114;BMP180;23926;53.222;6.354;2024-03-08T12:11:04;101393.00;;;10.40
38114;BMP180;23926;53.222;6.354;2024-03-08T12:13:32;101394.00;;;10.40
38114;BMP180;23926;53.222;6.354;2024-03-08T12:15:59;101387.00;;;10.60
38114;BMP180;23926;53.222;6.354;2024-03-08T12:18:26;101389.00;;;10.70
38114;BMP180;23926;53.222;6.354;2024-03-08T12:21:11;101379.00;;;10.60
38114;BMP180;23926;53.222;6.354;2024-03-08T12:23:38;101363.00;;;10.40
38114;BMP180;23926;53.222;6.354;2024-03-08T12:26:44;101367.00;;;10.60
38114;BMP180;23926;53.222;6.354;2024-03-08T12:29:24;101368.00;;;10.70
38114;BMP180;23926;53.222;6.354;2024-03-08T12:31:55;101358.00;;;10.50
38114;BMP180;23926;53.222;6.354;2024-03-08T12:34:23;101351.00;;;10.70
38114;BMP180;23926;53.222;6.354;2024-03-08T12:36:50;101347.00;;;10.70
38114;BMP180;23926;53.222;6.354;2024-03-08T12:39:20;101338.00;;;10.90
38114;BMP180;23926;53.222;6.354;2024-03-08T12:41:55;101334.00;;;10.90
38114;BMP180;23926;53.222;6.354;2024-03-08T12:44:22;101335.00;;;10.90
38114;BMP180;23926;53.222;6.354;2024-03-08T12:46:48;101332.00;;;10.90
38114;BMP180;23926;53.222;6.354;2024-03-08T12:49:14;101316.00;;;10.90
38114;BMP180;23926;53.222;6.354;2024-03-08T12:51:43;101314.00;;;10.90
38114;BMP180;23926;53.222;6.354;2024-03-08T12:54:09;101317.00;;;11.00
38114;BMP180;23926;53.222;6.354;2024-03-08T12:56:35;101316.00;;;11.20
38114;BMP180;23926;53.222;6.354;2024-03-08T12:59:03;101305.00;;;11.20
38114;BMP180;23926;53.222;6.354;2024-03-08T13:01:30;101307.00;;;11.20
38114;BMP180;23926;53.222;6.354;2024-03-08T13:03:57;101305.00;;;11.20
38114;BMP180;23926;53.222;6.354;2024-03-08T13:06:24;101295.00;;;11.30
38114;BMP180;23926;53.222;6.354;2024-03-08T13:08:52;101299.00;;;11.30
38114;BMP180;23926;53.222;6.354;2024-03-08T13:11:22;101293.00;;;11.40
38114;BMP180;23926;53.222;6.354;2024-03-08T13:13:48;101288.00;;;11.40
38114;BMP180;23926;53.222;6.354;2024-03-08T13:16:15;101286.00;;;11.40
38114;BMP180;23926;53.222;6.354;2024-03-08T13:18:43;101281.00;;;11.50
38114;BMP180;23926;53.222;6.354;2024-03-08T13:21:09;101276.00;;;11.50
38114;BMP180;23926;53.222;6.354;2024-03-08T13:23:40;101269.00;;;11.70
38114;BMP180;23926;53.222;6.354;2024-03-08T13:26:10;101262.00;;;11.80
38114;BMP180;23926;53.222;6.354;2024-03-08T13:28:50;101272.00;;;11.60
38114;BMP180;23926;53.222;6.354;2024-03-08T13:31:24;101250.00;;;11.60
38114;BMP180;23926;53.222;6.354;2024-03-08T13:33:50;101241.00;;;11.50
38114;BMP180;23926;53.222;6.354;2024-03-08T13:36:18;101258.00;;;11.50
38114;BMP180;23926;53.222;6.354;2024-03-08T13:38:47;101243.00;;;11.70
38114;BMP180;23926;53.222;6.354;2024-03-08T13:41:14;101222.00;;;11.70
38114;BMP180;23926;53.222;6.354;2024-03-08T13:43:46;101227.00;;;11.60
38114;BMP180;23926;53.222;6.354;2024-03-08T13:46:15;101228.00;;;11.60
38114;BMP180;23926;53.222;6.354;2024-03-08T13:48:40;101220.00;;;11.70
38114;BMP180;23926;53.222;6.354;2024-03-08T13:51:06;101220.00;;;11.60
38114;BMP180;23926;53.222;6.354;2024-03-08T13:53:33;101207.00;;;11.70
38114;BMP180;23926;53.222;6.354;2024-03-08T13:56:01;101211.00;;;11.90
38114;BMP180;23926;53.222;6.354;2024-03-08T13:58:26;101210.00;;;11.80
38114;BMP180;23926;53.222;6.354;2024-03-08T14:00:52;101201.00;;;11.90
38114;BMP180;23926;53.222;6.354;2024-03-08T14:03:18;101199.00;;;11.90
38114;BMP180;23926;53.222;6.354;2024-03-08T14:05:43;101191.00;;;12.00
38114;BMP180;23926;53.222;6.354;2024-03-08T14:08:10;101190.00;;;12.00
38114;BMP180;23926;53.222;6.354;2024-03-08T14:10:37;101177.00;;;12.10
38114;BMP180;23926;53.222;6.354;2024-03-08T14:13:03;101182.00;;;11.80